| time (UTC) | temp F | wind direction | speed knots | gust knots | rain 1hr in | rain 24hr in | rain mn in | humidity % | barometer mb |
| 20260508114516 | 44 | 322 | 0.0 | 0.0 | 0.00 | 0.00 | 0.00 | 87 | 1009.5 |
| 20260508113015 | 44 | 322 | 0.0 | 0.0 | 0.00 | 0.00 | 0.00 | 86 | 1009.6 |
| 20260508111514 | 45 | 322 | 0.0 | 0.0 | 0.00 | 0.00 | 0.00 | 87 | 1009.3 |
| 20260508110025 | 44 | 322 | 0.0 | 0.0 | 0.00 | 0.00 | 0.00 | 86 | 1009.3 |
| 20260508104509 | 45 | 322 | 0.0 | 0.0 | 0.00 | 0.00 | 0.00 | 85 | 1009.3 |
| 20260508103008 | 46 | 322 | 0.0 | 0.0 | 0.00 | 0.00 | 0.00 | 84 | 1009.3 |
| 20260508101507 | 45 | 322 | 0.0 | 0.0 | 0.00 | 0.00 | 0.00 | 84 | 1009.3 |
| 20260508100005 | 46 | 322 | 0.0 | 0.0 | 0.00 | 0.00 | 0.00 | 84 | 1009.2 |
| 20260508094504 | 46 | 322 | 0.0 | 0.0 | 0.00 | 0.00 | 0.00 | 84 | 1009.0 |
| 20260508093001 | 46 | 322 | 0.0 | 0.0 | 0.00 | 0.00 | 0.00 | 83 | 1009.1 |
| 20260508091502 | 46 | 322 | 0.0 | 0.0 | 0.00 | 0.00 | 0.00 | 83 | 1009.0 |
| 20260508090113 | 46 | 322 | 0.0 | 0.0 | 0.00 | 0.00 | 0.00 | 83 | 1009.0 |
| 20260508084558 | 47 | 322 | 0.0 | 0.0 | 0.00 | 0.00 | 0.00 | 82 | 1009.0 |
| 20260508083057 | 47 | 322 | 0.0 | 1.7 | 0.00 | 0.00 | 0.00 | 82 | 1008.9 |
| 20260508081603 | 47 | 322 | 0.0 | 0.0 | 0.00 | 0.00 | 0.00 | 81 | 1008.9 |
| 20260508080054 | 48 | 322 | 0.0 | 2.6 | 0.00 | 0.00 | 0.00 | 81 | 1008.9 |
| 20260508074551 | 48 | 322 | 0.0 | 1.7 | 0.00 | 0.00 | 0.00 | 80 | 1008.8 |
| 20260508073101 | 49 | 322 | 0.9 | 2.6 | 0.00 | 0.00 | 0.00 | 78 | 1008.8 |
| 20260508071555 | 49 | 322 | 0.0 | 0.0 | 0.00 | 0.00 | 0.00 | 78 | 1008.8 |
| 20260508070045 | 50 | 322 | 0.0 | 0.0 | 0.00 | 0.00 | 0.00 | 77 | 1008.5 |
| 20260508064543 | 50 | 322 | 0.0 | 1.7 | 0.00 | 0.00 | 0.00 | 76 | 1008.4 |
| 20260508063041 | 50 | 322 | 0.9 | 2.6 | 0.00 | 0.00 | 0.00 | 76 | 1008.5 |
| 20260508061540 | 51 | 322 | 0.9 | 1.7 | 0.00 | 0.00 | 0.00 | 75 | 1008.6 |
| 20260508060037 | 51 | 322 | 0.9 | 2.6 | 0.00 | 0.00 | 0.00 | 74 | 1008.5 |
| 20260508054537 | 51 | 322 | 0.0 | 0.0 | 0.00 | 0.00 | 0.00 | 74 | 1008.4 |
| 20260508053059 | 52 | 322 | 0.0 | 1.7 | 0.00 | 0.00 | 0.00 | 71 | 1008.2 |
| 20260508051540 | 52 | 322 | 0.0 | 0.0 | 0.00 | 0.00 | 0.00 | 71 | 1008.0 |
| 20260508050036 | 54 | 322 | 1.7 | 2.6 | 0.00 | 0.00 | 0.00 | 69 | 1007.8 |
| 20260508044535 | 55 | 322 | 0.0 | 1.7 | 0.00 | 0.00 | 0.00 | 66 | 1007.8 |
| 20260508043034 | 54 | 322 | 0.0 | 1.7 | 0.00 | 0.00 | 0.00 | 67 | 1007.6 |
| 20260508041556 | 56 | 322 | 0.0 | 1.7 | 0.00 | 0.00 | 0.00 | 65 | 1007.6 |
| 20260508040042 | 58 | 322 | 0.0 | 0.9 | 0.00 | 0.00 | 0.00 | 61 | 1007.5 |
| 20260508034535 | 60 | 322 | 0.0 | 1.7 | 0.00 | 0.00 | 0.00 | 57 | 1007.3 |
| 20260508033033 | 62 | 322 | 0.0 | 4.3 | 0.00 | 0.00 | 0.00 | 52 | 1007.1 |
| 20260508004526 | 70 | 264 | 0.9 | 3.5 | 0.00 | 0.00 | 0.00 | 36 | 1006.1 |
| 20260508003033 | 71 | 184 | 0.9 | 3.5 | 0.00 | 0.00 | 0.00 | 36 | 1006.2 |
| 20260508001527 | 71 | 312 | 0.9 | 3.5 | 0.00 | 0.00 | 0.00 | 37 | 1006.2 |
| 20260508000030 | 71 | 302 | 0.9 | 3.5 | 0.00 | 0.00 | 0.00 | 39 | 1006.0 |